PWAK

Details ICAO PWAK (AWK)
Name Wake Island Airfield
Region USA (Wake Island)
Timezone Pacific/Wake (UTC+12.0)
Plans Departing 45
Arriving 60
Stats Elevation 14 ft / 4 m (AMSL)
Location 19.282065° 166.636443°
Runways 1
Magnetic Variation 5.323° E
Sunrise 2018-05-23 18:17:32 UTC / 2018-05-24 06:17:32 Local
Sunset 2018-05-24 07:25:49 UTC / 2018-05-24 19:25:49 Local
Advertisement - Login to hide

Runways

ID Width Length Bearing (true) Bearing (mag) Surface Threshold Offset Overrun Length
10 150 ft / 46 m 9,817 ft / 2,992 m 101.98° 96.66° Asphalt 0 ft / 0 m 190 ft / 58 m
28 150 ft / 46 m 9,817 ft / 2,992 m 281.99° 276.67° Asphalt 0 ft / 0 m 190 ft / 58 m

Map

Weather


0- 5 10 15 20 25 30 35+ Temperature / ° C

Clouds and Precipitation
Forecast for 2018-05-23 18:00 UTC. Updated 2 hours ago

Ground ~20,000 ft ~40,000 ft Winds

METAR

PWAK 231758Z AUTO 10009KT 9999 SCT019 SCT050 26/22 A2992 RMK AO2 SLP138 53003

TAF

TAF PWAK 231407Z 2314/2420 10012KT 9999 SCT015 SCT160 QNH2989INS TX30/2401Z TN24/2316Z

Frequencies

Tower 128.00 MHz OPS AAS
Warning: Do not use this data for real-world aviation or navigation. No guarantee of current accuracy is given.